Terminal Aerodrome Forecast
Issued by NWS

Home | Current Version | Previous Version | Text Only | Print | Product List | Glossary Off
Versions: 1 2 3 4 5 6 7 8 9 10 11 12 13 14 15

000
FTUS43 KICT 300524
TAFCNU
TAF
KCNU 300524Z 3006/3106 35005KT P6SM BKN250
     FM301500 VRB04KT P6SM SCT020 BKN250
     FM310000 15006KT P6SM BKN060=

USA.gov is the U.S. government's official web portal to all federal, state and local government web resources and services.